Time;durP1;ratioP1;P1;durP2;ratioP2;P2;SDS_P1;SDS_P2;PMS_P1;PMS_P2;Temp;Humidity;BMP_temperature;BMP_pressure;BME280_temperature;BME280_humidity;BME280_pressure;Samples;Min_cycle;Max_cycle;Signal;HPM_P1;HPM_P2
2022/07/07 00:02:13;;;;;;;1.00;0.55;;;;;;;18.40;100.00;99385.80;1740162;79;21685;-51
2022/07/07 00:04:39;;;;;;;0.42;0.42;;;;;;;18.35;100.00;99386.72;1740076;79;21079;-51
2022/07/07 00:07:06;;;;;;;4.97;0.50;;;;;;;18.32;100.00;99383.74;1739835;79;21061;-50
2022/07/07 00:09:33;;;;;;;0.72;0.42;;;;;;;18.32;100.00;99383.74;1739272;79;21148;-51
2022/07/07 00:11:59;;;;;;;0.68;0.40;;;;;;;18.33;100.00;99387.34;1740882;79;21032;-52
2022/07/07 00:14:26;;;;;;;2.05;0.40;;;;;;;18.28;100.00;99384.16;1738257;79;21092;-51
2022/07/07 00:16:53;;;;;;;0.37;0.37;;;;;;;18.24;100.00;99385.39;1742611;79;21071;-51
2022/07/07 00:19:19;;;;;;;0.98;0.40;;;;;;;18.20;100.00;99392.12;1741458;79;21576;-50
2022/07/07 00:21:45;;;;;;;1.02;0.30;;;;;;;18.19;100.00;99399.92;1741185;79;21981;-53
2022/07/07 00:24:12;;;;;;;0.78;0.33;;;;;;;18.20;100.00;99403.02;1741014;79;21060;-52
2022/07/07 00:26:39;;;;;;;1.40;0.30;;;;;;;18.16;100.00;99402.40;1741214;79;21044;-52
2022/07/07 00:29:06;;;;;;;0.55;0.30;;;;;;;18.14;100.00;99401.16;1743377;79;21088;-51
2022/07/07 00:31:33;;;;;;;1.55;0.20;;;;;;;18.12;100.00;99407.23;1740480;79;21124;-51
2022/07/07 00:34:00;;;;;;;2.42;0.20;;;;;;;18.09;100.00;99403.42;1744203;79;21479;-51
2022/07/07 00:36:27;;;;;;;1.00;0.25;;;;;;;18.04;100.00;99395.25;1740795;79;21610;-52
2022/07/07 00:38:53;;;;;;;2.25;0.20;;;;;;;17.97;100.00;99397.63;1742802;79;21120;-50
2022/07/07 00:41:19;;;;;;;0.85;0.10;;;;;;;17.91;100.00;99392.71;1744374;79;21081;-52
2022/07/07 00:43:46;;;;;;;0.10;0.10;;;;;;;17.86;100.00;99399.05;1742139;79;21083;-53
2022/07/07 00:46:12;;;;;;;4.50;1.65;;;;;;;17.79;100.00;99392.37;1741526;79;21140;-51
2022/07/07 00:48:40;;;;;;;0.20;0.20;;;;;;;17.68;100.00;99391.92;1746321;79;21100;-51
2022/07/07 00:51:09;;;;;;;0.10;0.10;;;;;;;17.57;100.00;99382.88;1746682;79;21084;-50
2022/07/07 00:53:35;;;;;;;1.90;0.28;;;;;;;17.53;100.00;99388.19;1737275;79;21050;-52
2022/07/07 00:56:02;;;;;;;0.40;0.13;;;;;;;17.48;100.00;99388.58;1738834;79;21512;-51
2022/07/07 00:58:29;;;;;;;2.00;0.20;;;;;;;17.43;100.00;99385.38;1737760;79;21527;-51
2022/07/07 01:00:55;;;;;;;4.37;0.20;;;;;;;17.32;100.00;99374.02;1739978;79;22305;-52
2022/07/07 01:03:22;;;;;;;0.60;0.13;;;;;;;17.25;100.00;99375.52;1744786;79;21060;-52
2022/07/07 01:05:48;;;;;;;0.45;0.10;;;;;;;17.19;100.00;99375.98;1739217;80;21075;-50
2022/07/07 01:08:15;;;;;;;0.30;0.15;;;;;;;17.15;100.00;99380.45;1746999;79;21049;-51
2022/07/07 01:10:45;;;;;;;0.10;0.10;;;;;;;17.12;100.00;99387.00;1741992;79;21222;-51
2022/07/07 01:13:11;;;;;;;0.10;0.10;;;;;;;17.12;100.00;99391.56;1745007;79;21096;-53
2022/07/07 01:15:39;;;;;;;0.10;0.10;;;;;;;17.08;100.00;99395.05;1747101;79;21095;-51
2022/07/07 01:18:09;;;;;;;3.92;0.20;;;;;;;17.05;100.00;99400.72;1742232;79;21685;-50
2022/07/07 01:20:36;;;;;;;0.40;0.10;;;;;;;17.04;100.00;99413.94;1751591;79;21115;-50
2022/07/07 01:23:02;;;;;;;1.37;0.10;;;;;;;17.05;100.00;99418.89;1747580;79;21234;-52
2022/07/07 01:25:29;;;;;;;1.82;0.25;;;;;;;17.05;100.00;99427.91;1745661;79;21151;-50
2022/07/07 01:27:55;;;;;;;0.23;0.13;;;;;;;17.05;100.00;99425.20;1746420;79;21129;-51
2022/07/07 01:30:22;;;;;;;0.10;0.10;;;;;;;17.05;100.00;99425.69;1744064;79;21107;-52
2022/07/07 01:32:50;;;;;;;0.20;0.10;;;;;;;17.04;100.00;99418.02;1753792;79;21048;-52
2022/07/07 01:35:17;;;;;;;5.05;0.10;;;;;;;17.02;100.00;99418.14;1729055;80;21302;-51
2022/07/07 01:37:43;;;;;;;0.15;0.10;;;;;;;17.00;100.00;99420.63;1750425;79;20940;-51
2022/07/07 01:40:10;;;;;;;0.25;0.20;;;;;;;16.98;100.00;99415.31;1749929;79;20949;-53
2022/07/07 01:42:36;;;;;;;0.28;0.10;;;;;;;16.93;100.00;99418.88;1746277;79;21387;-51
2022/07/07 01:45:04;;;;;;;0.42;0.15;;;;;;;16.89;100.00;99428.77;1749477;79;20997;-52
2022/07/07 01:47:31;;;;;;;1.50;0.10;;;;;;;16.81;100.00;99429.37;1746179;79;21029;-52
2022/07/07 01:49:58;;;;;;;2.05;0.10;;;;;;;16.77;100.00;99431.08;1748280;79;20941;-51
2022/07/07 01:52:24;;;;;;;2.50;0.10;;;;;;;16.72;100.00;99427.87;1749749;78;21408;-50
2022/07/07 01:54:51;;;;;;;1.45;0.10;;;;;;;16.66;100.00;99429.23;1736939;80;21871;-51
2022/07/07 01:57:17;;;;;;;0.10;0.10;;;;;;;16.58;100.00;99425.72;1746966;79;21452;-50
2022/07/07 01:59:44;;;;;;;0.82;0.10;;;;;;;16.56;100.00;99430.40;1746505;79;21676;-52
2022/07/07 02:02:10;;;;;;;0.30;0.10;;;;;;;16.57;100.00;99432.62;1751394;79;20917;-52
2022/07/07 02:04:37;;;;;;;3.85;0.20;;;;;;;16.57;100.00;99447.08;1750469;79;20925;-50
2022/07/07 02:07:03;;;;;;;0.20;0.10;;;;;;;16.55;100.00;99435.95;1744103;79;20890;-51
2022/07/07 02:09:31;;;;;;;0.10;0.10;;;;;;;16.51;100.00;99433.95;1745692;79;20958;-51
2022/07/07 02:11:58;;;;;;;0.23;0.15;;;;;;;16.46;100.00;99437.52;1745292;79;21255;-51
2022/07/07 02:14:24;;;;;;;3.67;0.13;;;;;;;16.37;100.00;99432.80;1748629;78;21417;-51
2022/07/07 02:16:52;;;;;;;0.78;0.25;;;;;;;16.31;100.00;99437.36;1749092;79;21067;-51
2022/07/07 02:19:19;;;;;;;0.78;0.20;;;;;;;16.26;100.00;99442.25;1749216;79;20929;-52
2022/07/07 02:21:45;;;;;;;0.45;0.20;;;;;;;16.24;100.00;99438.81;1745945;79;21468;-51
2022/07/07 02:24:13;;;;;;;0.20;0.20;;;;;;;16.26;100.00;99443.61;1745131;79;21192;-51
2022/07/07 02:26:39;;;;;;;0.33;0.17;;;;;;;16.30;100.00;99446.48;1747521;78;21060;-51
2022/07/07 02:29:05;;;;;;;0.37;0.10;;;;;;;16.32;100.00;99454.52;1752743;79;21826;-53
2022/07/07 02:31:34;;;;;;;1.65;0.10;;;;;;;16.28;100.00;99456.59;1744983;79;21120;-52
2022/07/07 02:34:00;;;;;;;0.10;0.10;;;;;;;16.25;100.00;99454.97;1744186;78;21061;-52
2022/07/07 02:36:27;;;;;;;0.35;0.10;;;;;;;16.21;100.00;99456.20;1742452;78;21247;-52
2022/07/07 02:38:54;;;;;;;0.20;0.10;;;;;;;16.19;100.00;99446.42;1750491;79;21704;-53
2022/07/07 02:41:20;;;;;;;0.53;0.30;;;;;;;16.17;100.00;99447.89;1747177;79;21100;-52
2022/07/07 02:43:47;;;;;;;0.55;0.10;;;;;;;16.18;100.00;99455.06;1748583;78;21067;-52
2022/07/07 02:46:13;;;;;;;0.20;0.10;;;;;;;16.15;100.00;99464.81;1749005;79;21079;-52
2022/07/07 02:48:39;;;;;;;0.85;0.10;;;;;;;16.12;100.00;99474.54;1744222;79;21675;-52
2022/07/07 02:51:06;;;;;;;0.40;0.17;;;;;;;16.10;100.00;99468.34;1749046;79;22048;-51
2022/07/07 02:53:34;;;;;;;1.65;0.15;;;;;;;16.10;100.00;99470.20;1747947;79;21740;-52
2022/07/07 02:56:01;;;;;;;0.20;0.13;;;;;;;16.10;100.00;99472.91;1749771;79;21135;-52
2022/07/07 02:58:27;;;;;;;0.37;0.17;;;;;;;16.14;100.00;99473.08;1749205;79;21068;-51
2022/07/07 03:00:54;;;;;;;1.07;0.20;;;;;;;16.18;100.00;99471.84;1744512;79;21224;-52
2022/07/07 03:03:21;;;;;;;0.17;0.10;;;;;;;16.22;100.00;99472.00;1744874;79;21682;-51
2022/07/07 03:05:48;;;;;;;0.20;0.10;;;;;;;16.23;100.00;99467.81;1746775;79;21404;-52
2022/07/07 03:08:14;;;;;;;1.52;0.10;;;;;;;16.23;100.00;99463.74;1749443;79;21124;-52
2022/07/07 03:10:41;;;;;;;1.27;0.10;;;;;;;16.20;100.00;99471.24;1745927;79;21016;-51
2022/07/07 03:13:07;;;;;;;0.45;0.10;;;;;;;16.17;100.00;99461.95;1746661;79;21598;-52
2022/07/07 03:18:06;;;;;;;0.85;0.10;;;;;;;16.15;100.00;99463.45;1793806;78;27693;-52
2022/07/07 03:20:33;;;;;;;0.10;0.10;;;;;;;16.11;100.00;99468.73;1768448;79;21074;-52
2022/07/07 03:22:59;;;;;;;0.60;0.10;;;;;;;16.10;100.00;99477.85;1766495;79;22631;-51
2022/07/07 03:25:26;;;;;;;0.33;0.00;;;;;;;16.11;100.00;99480.08;1772760;79;21005;-51
2022/07/07 03:27:53;;;;;;;0.13;0.13;;;;;;;16.13;100.00;99468.63;1768929;79;21066;-52
2022/07/07 03:30:19;;;;;;;0.10;0.10;;;;;;;16.15;100.00;99477.03;1770958;79;21053;-51
2022/07/07 03:32:45;;;;;;;0.20;0.10;;;;;;;16.16;100.00;99483.34;1770865;79;21855;-51
2022/07/07 03:35:12;;;;;;;0.20;0.10;;;;;;;16.19;100.00;99489.38;1767788;79;22101;-51
2022/07/07 03:37:40;;;;;;;0.20;0.10;;;;;;;16.22;100.00;99490.52;1767207;79;20958;-51
2022/07/07 03:40:08;;;;;;;0.15;0.10;;;;;;;16.24;100.00;99489.05;1769169;79;20922;-52
2022/07/07 03:42:36;;;;;;;0.20;0.10;;;;;;;16.24;100.00;99491.28;1767628;79;21100;-52
2022/07/07 03:45:03;;;;;;;0.53;0.10;;;;;;;16.21;100.00;99488.78;1763933;79;21088;-52
2022/07/07 03:47:29;;;;;;;0.15;0.10;;;;;;;16.23;100.00;99488.67;1763927;79;21537;-51
2022/07/07 03:49:56;;;;;;;0.40;0.10;;;;;;;16.24;100.00;99496.71;1764720;79;20934;-52
2022/07/07 03:52:23;;;;;;;0.10;0.10;;;;;;;16.30;100.00;99495.86;1765651;79;21098;-52
2022/07/07 03:54:50;;;;;;;0.10;0.10;;;;;;;16.33;100.00;99492.92;1768009;79;21093;-52
2022/07/07 03:57:16;;;;;;;0.65;0.10;;;;;;;16.35;100.00;99501.31;1766803;79;21440;-52
2022/07/07 03:59:43;;;;;;;2.40;0.17;;;;;;;16.37;100.00;99498.48;1762439;80;21840;-51
2022/07/07 04:02:10;;;;;;;0.30;0.10;;;;;;;16.35;100.00;99505.37;1758556;80;21088;-52
2022/07/07 04:04:36;;;;;;;2.33;0.10;;;;;;;16.33;100.00;99506.50;1759363;80;21466;-51
2022/07/07 04:07:04;;;;;;;0.20;0.13;;;;;;;16.32;100.00;99511.06;1715463;81;21579;-52
2022/07/07 04:09:30;;;;;;;0.30;0.10;;;;;;;16.34;100.00;99511.80;1702861;83;21084;-52
2022/07/07 04:11:57;;;;;;;0.25;0.20;;;;;;;16.34;100.00;99516.36;1703162;82;21461;-52
2022/07/07 04:14:24;;;;;;;1.12;0.10;;;;;;;16.36;100.00;99513.91;1703266;83;21615;-52
2022/07/07 04:16:50;;;;;;;0.47;0.10;;;;;;;16.37;100.00;99514.29;1681085;83;21087;-50
2022/07/07 04:19:17;;;;;;;0.57;0.10;;;;;;;16.37;100.00;99512.06;1662429;83;21807;-51
2022/07/07 04:21:43;;;;;;;1.27;0.10;;;;;;;16.37;100.00;99515.64;1665506;83;21477;-51
2022/07/07 04:24:09;;;;;;;1.65;0.10;;;;;;;16.35;100.00;99509.94;1664414;83;21159;-51
2022/07/07 04:26:36;;;;;;;2.50;0.10;;;;;;;16.36;100.00;99516.62;1667724;83;21136;-51
2022/07/07 04:29:03;;;;;;;0.10;0.10;;;;;;;16.38;100.00;99509.23;1667095;84;21133;-51
2022/07/07 04:31:30;;;;;;;0.17;0.10;;;;;;;16.33;100.00;99507.38;1669460;84;21065;-51
2022/07/07 04:33:56;;;;;;;0.10;0.10;;;;;;;16.35;100.00;99514.02;1669749;84;21108;-52
2022/07/07 04:36:23;;;;;;;0.33;0.10;;;;;;;16.31;100.00;99507.10;1665226;84;21096;-52
2022/07/07 04:38:49;;;;;;;0.75;0.40;;;;;;;16.30;100.00;99505.36;1664057;84;21556;-52
2022/07/07 04:41:15;;;;;;;1.95;0.10;;;;;;;16.28;100.00;99512.27;1661586;84;21275;-52
2022/07/07 04:43:42;;;;;;;1.32;0.15;;;;;;;16.29;100.00;99514.00;1652650;84;21085;-51
2022/07/07 04:46:08;;;;;;;1.00;0.10;;;;;;;16.35;100.00;99520.32;1661479;84;21075;-52
2022/07/07 04:48:35;;;;;;;0.37;0.20;;;;;;;16.39;100.00;99520.97;1664173;84;21273;-51
2022/07/07 04:51:02;;;;;;;0.10;0.10;;;;;;;16.41;100.00;99533.95;1662670;84;21597;-53
2022/07/07 04:53:29;;;;;;;0.15;0.10;;;;;;;16.42;100.00;99536.52;1663655;84;21097;-51
2022/07/07 04:55:55;;;;;;;0.10;0.10;;;;;;;16.43;100.00;99535.55;1659448;84;21136;-51
2022/07/07 04:58:21;;;;;;;3.70;0.20;;;;;;;16.45;100.00;99530.88;1652452;84;21148;-53
2022/07/07 05:00:48;;;;;;;0.57;0.10;;;;;;;16.45;100.00;99543.59;1633995;85;21508;-52
2022/07/07 05:03:14;;;;;;;0.42;0.13;;;;;;;16.47;100.00;99550.64;1661155;84;21400;-51
2022/07/07 05:05:41;;;;;;;0.30;0.10;;;;;;;16.51;100.00;99541.27;1660625;84;21121;-50
2022/07/07 05:08:07;;;;;;;0.15;0.15;;;;;;;16.55;100.00;99542.78;1653742;84;21093;-53
2022/07/07 05:10:36;;;;;;;0.30;0.20;;;;;;;16.55;100.00;99540.06;1660134;84;21567;-52
2022/07/07 05:13:02;;;;;;;0.25;0.10;;;;;;;16.56;100.00;99539.08;1659972;84;22395;-52
2022/07/07 05:15:28;;;;;;;0.33;0.20;;;;;;;16.57;100.00;99538.10;1666611;84;20907;-54
2022/07/07 05:17:55;;;;;;;0.40;0.20;;;;;;;16.57;100.00;99545.39;1683495;83;20876;-53
2022/07/07 05:20:22;;;;;;;0.25;0.20;;;;;;;16.54;100.00;99539.69;1674451;84;20918;-52
2022/07/07 05:22:48;;;;;;;0.20;0.10;;;;;;;16.54;100.00;99543.76;1676693;84;21095;-53
2022/07/07 05:25:15;;;;;;;1.75;0.20;;;;;;;16.53;100.00;99546.09;1674114;84;21803;-52
2022/07/07 05:27:44;;;;;;;0.47;0.20;;;;;;;16.53;100.00;99547.45;1674067;84;21132;-53
2022/07/07 05:30:12;;;;;;;0.20;0.20;;;;;;;16.56;100.00;99551.31;1674580;84;21087;-51
2022/07/07 05:32:39;;;;;;;1.55;0.20;;;;;;;16.58;100.00;99549.84;1676377;84;21029;-52
2022/07/07 05:35:07;;;;;;;3.15;0.30;;;;;;;16.60;100.00;99547.36;1666403;84;21057;-52
2022/07/07 05:37:33;;;;;;;0.20;0.20;;;;;;;16.62;100.00;99544.56;1670108;83;21114;-53
2022/07/07 05:40:00;;;;;;;0.40;0.30;;;;;;;16.68;100.00;99541.86;1671393;84;21334;-52
2022/07/07 05:42:26;;;;;;;0.33;0.28;;;;;;;16.72;100.00;99552.89;1670485;84;22312;-54
2022/07/07 05:44:53;;;;;;;0.47;0.30;;;;;;;16.75;100.00;99543.16;1670196;84;21103;-53
2022/07/07 05:47:19;;;;;;;0.65;0.20;;;;;;;16.76;100.00;99553.88;1674253;84;21050;-54
2022/07/07 05:49:46;;;;;;;1.45;0.30;;;;;;;16.77;100.00;99553.39;1676683;84;21162;-53
2022/07/07 05:52:13;;;;;;;0.25;0.20;;;;;;;16.79;100.00;99561.81;1669636;84;21097;-54
2022/07/07 05:54:41;;;;;;;0.20;0.20;;;;;;;16.83;100.00;99562.45;1670583;84;21526;-53
2022/07/07 05:57:07;;;;;;;0.65;0.30;;;;;;;16.90;100.00;99571.86;1666372;84;21438;-53
2022/07/07 05:59:34;;;;;;;0.40;0.30;;;;;;;16.91;100.00;99567.67;1668562;84;21142;-53
2022/07/07 06:02:01;;;;;;;0.40;0.30;;;;;;;16.92;100.00;99569.91;1717102;81;21858;-53
2022/07/07 06:04:27;;;;;;;3.12;0.40;;;;;;;16.94;100.00;99578.78;1714732;81;21087;-53
2022/07/07 06:06:54;;;;;;;2.27;0.50;;;;;;;16.96;100.00;99575.46;1714005;81;21081;-52
2022/07/07 06:09:20;;;;;;;0.88;0.50;;;;;;;16.97;100.00;99585.35;1719180;81;21035;-51
2022/07/07 06:11:46;;;;;;;0.70;0.50;;;;;;;17.00;100.00;99576.97;1714319;81;21439;-51
2022/07/07 06:14:14;;;;;;;0.50;0.42;;;;;;;17.05;100.00;99577.96;1718178;81;21136;-50
2022/07/07 06:16:41;;;;;;;0.70;0.60;;;;;;;17.10;100.00;99582.05;1714392;81;21692;-51
2022/07/07 06:19:11;;;;;;;0.40;0.40;;;;;;;17.11;100.00;99591.08;1719808;81;21034;-50
2022/07/07 06:21:38;;;;;;;2.72;0.50;;;;;;;17.09;100.00;99588.98;1708433;81;21047;-51
2022/07/07 06:24:06;;;;;;;0.78;0.40;;;;;;;17.10;100.00;99583.41;1711921;81;21043;-51
2022/07/07 06:26:34;;;;;;;0.40;0.30;;;;;;;17.10;100.00;99589.37;1716312;81;21293;-51
2022/07/07 06:29:00;;;;;;;1.55;0.30;;;;;;;17.11;100.00;99593.80;1709443;82;21501;-50
2022/07/07 06:31:27;;;;;;;0.37;0.30;;;;;;;17.11;100.00;99600.10;1712086;81;21040;-51
2022/07/07 06:33:53;;;;;;;0.82;0.25;;;;;;;17.11;100.00;99593.30;1692024;82;21704;-51
2022/07/07 06:36:20;;;;;;;0.70;0.42;;;;;;;17.13;100.00;99593.19;1710414;81;21035;-51
2022/07/07 06:38:46;;;;;;;4.12;0.40;;;;;;;17.19;100.00;99601.73;1714675;81;21526;-50
2022/07/07 06:41:12;;;;;;;0.30;0.30;;;;;;;17.24;100.00;99598.17;1715101;81;21105;-51
2022/07/07 06:43:39;;;;;;;0.88;0.30;;;;;;;17.26;100.00;99595.34;1711323;81;21083;-51
2022/07/07 06:46:06;;;;;;;0.40;0.30;;;;;;;17.27;100.00;99596.56;1710480;81;21063;-51
2022/07/07 06:48:32;;;;;;;0.20;0.20;;;;;;;17.31;100.00;99598.06;1709411;81;21729;-52
2022/07/07 06:50:59;;;;;;;1.37;0.20;;;;;;;17.37;100.00;99595.34;1715776;81;22282;-51
2022/07/07 06:53:25;;;;;;;0.30;0.30;;;;;;;17.47;100.00;99594.13;1712183;81;21111;-51
2022/07/07 06:55:52;;;;;;;0.42;0.30;;;;;;;17.56;100.00;99594.27;1707807;81;21084;-52
2022/07/07 06:58:18;;;;;;;0.30;0.30;;;;;;;17.64;100.00;99592.34;1710789;81;21070;-50
2022/07/07 07:00:44;;;;;;;1.57;0.20;;;;;;;17.70;100.00;99588.62;1712783;81;21100;-52
2022/07/07 07:03:11;;;;;;;0.90;0.30;;;;;;;17.76;100.00;99585.92;1711770;81;21711;-51
2022/07/07 07:05:37;;;;;;;1.77;0.30;;;;;;;17.84;100.00;99587.53;1712897;81;22382;-52
2022/07/07 07:08:06;;;;;;;0.35;0.30;;;;;;;17.92;100.00;99586.41;1712808;81;21047;-51
2022/07/07 07:10:32;;;;;;;0.60;0.40;;;;;;;17.99;100.00;99587.64;1712663;81;21095;-51
2022/07/07 07:12:58;;;;;;;0.45;0.33;;;;;;;18.08;100.00;99590.98;1711501;81;21626;-52
2022/07/07 07:15:25;;;;;;;0.40;0.30;;;;;;;18.13;100.00;99585.14;1711794;81;21145;-51
2022/07/07 07:17:51;;;;;;;0.40;0.30;;;;;;;18.18;100.00;99591.09;1720936;80;21060;-51
2022/07/07 07:20:18;;;;;;;1.35;0.30;;;;;;;18.24;100.00;99588.36;1744928;80;21104;-51
2022/07/07 07:22:45;;;;;;;0.53;0.20;;;;;;;18.33;100.00;99594.41;1742353;80;21114;-52
2022/07/07 07:25:15;;;;;;;0.55;0.40;;;;;;;18.44;100.00;99586.22;1747228;80;21060;-51
2022/07/07 07:27:41;;;;;;;0.42;0.35;;;;;;;18.56;100.00;99592.48;1745707;80;21235;-51
2022/07/07 07:30:09;;;;;;;0.30;0.30;;;;;;;18.65;100.00;99592.62;1742961;80;21548;-51
2022/07/07 07:32:36;;;;;;;1.60;0.20;;;;;;;18.71;100.00;99596.22;1743044;80;21032;-50
2022/07/07 07:35:03;;;;;;;0.98;0.40;;;;;;;18.73;100.00;99590.11;1747046;80;20913;-51
2022/07/07 07:37:29;;;;;;;1.95;0.30;;;;;;;18.72;100.00;99585.66;1741407;80;20946;-51
2022/07/07 07:39:55;;;;;;;0.80;0.20;;;;;;;18.74;100.00;99586.40;1750734;80;21566;-51
2022/07/07 07:42:22;;;;;;;0.30;0.20;;;;;;;18.77;100.00;99587.52;1747277;80;21141;-51
2022/07/07 07:47:34;;;;;;;0.20;0.20;;;;;;;18.84;100.00;99583.77;1746764;80;21493;-51
2022/07/07 07:50:01;;;;;;;3.27;0.30;;;;;;;18.92;100.00;99596.25;1744267;80;21076;-51
2022/07/07 07:52:27;;;;;;;0.50;0.20;;;;;;;18.99;100.00;99592.49;1743678;80;21169;-51
2022/07/07 07:54:54;;;;;;;0.50;0.30;;;;;;;19.05;100.00;99594.72;1740156;80;21117;-51
2022/07/07 07:57:20;;;;;;;0.50;0.30;;;;;;;19.08;100.00;99597.16;1743051;80;21492;-51
2022/07/07 07:59:47;;;;;;;0.20;0.20;;;;;;;19.11;100.00;99593.69;1747212;80;20970;-52
2022/07/07 08:02:13;;;;;;;2.08;0.30;;;;;;;19.10;100.00;99594.68;1744192;80;21077;-52
2022/07/07 08:04:39;;;;;;;1.37;0.30;;;;;;;19.11;100.00;99592.82;1741833;80;21187;-52
2022/07/07 08:07:07;;;;;;;3.27;0.40;;;;;;;19.13;100.00;99591.70;1749330;80;21606;-52
2022/07/07 08:09:34;;;;;;;0.50;0.35;;;;;;;19.19;100.00;99592.53;1746178;80;21558;-52
2022/07/07 08:12:01;;;;;;;0.50;0.28;;;;;;;19.27;100.00;99600.91;1749479;80;21554;-52
2022/07/07 08:14:27;;;;;;;0.35;0.30;;;;;;;19.35;100.00;99600.25;1738600;80;21072;-51
2022/07/07 08:16:54;;;;;;;0.70;0.30;;;;;;;19.42;100.00;99597.34;1741145;80;21143;-52
2022/07/07 08:19:20;;;;;;;0.33;0.30;;;;;;;19.48;100.00;99598.20;1744335;80;21399;-52
2022/07/07 08:21:47;;;;;;;0.35;0.30;;;;;;;19.51;100.00;99597.95;1743859;80;21121;-52
2022/07/07 08:24:14;;;;;;;0.30;0.20;;;;;;;19.53;100.00;99604.14;1746875;80;21472;-52
2022/07/07 08:26:41;;;;;;;0.30;0.20;;;;;;;19.55;100.00;99606.25;1749523;80;21010;-52
2022/07/07 08:29:07;;;;;;;0.37;0.20;;;;;;;19.57;100.00;99611.05;1750407;80;21194;-53
2022/07/07 08:31:35;;;;;;;0.35;0.20;;;;;;;19.59;100.00;99606.83;1748967;80;21034;-52
2022/07/07 08:34:01;;;;;;;1.37;0.30;;;;;;;19.68;100.00;99610.61;1749185;80;21098;-52
2022/07/07 08:36:30;;;;;;;1.95;0.20;;;;;;;19.85;100.00;99609.98;1743825;80;21530;-53
2022/07/07 08:38:57;;;;;;;1.52;0.20;;;;;;;19.96;100.00;99603.08;1744382;80;21160;-53
2022/07/07 08:41:24;;;;;;;0.30;0.20;;;;;;;20.07;100.00;99608.45;1742465;80;21553;-52
2022/07/07 08:43:51;;;;;;;0.30;0.30;;;;;;;20.15;100.00;99614.59;1746572;80;21074;-52
2022/07/07 08:46:17;;;;;;;3.17;0.30;;;;;;;20.18;100.00;99602.88;1739642;80;21078;-53
2022/07/07 08:48:44;;;;;;;0.45;0.20;;;;;;;20.22;100.00;99608.44;1745925;80;21055;-53
2022/07/07 08:51:10;;;;;;;0.40;0.20;;;;;;;20.28;100.00;99609.73;1671563;83;21501;-53
2022/07/07 08:53:38;;;;;;;0.20;0.20;;;;;;;20.32;100.00;99615.31;1749650;80;22182;-53
2022/07/07 08:56:07;;;;;;;0.60;0.20;;;;;;;20.31;100.00;99618.55;1746133;80;21063;-52
2022/07/07 08:58:35;;;;;;;0.20;0.20;;;;;;;20.31;100.00;99616.31;1747170;80;21074;-53
2022/07/07 09:01:06;;;;;;;0.30;0.20;;;;;;;20.31;100.00;99628.11;1744469;80;21058;-53
2022/07/07 09:03:33;;;;;;;0.20;0.20;;;;;;;20.32;100.00;99620.77;1670527;84;20968;-53
2022/07/07 09:06:00;;;;;;;0.60;0.20;;;;;;;20.39;100.00;99622.84;1747137;80;21080;-52
2022/07/07 09:08:29;;;;;;;0.70;0.23;;;;;;;20.50;100.00;99627.84;1745948;80;22144;-54
2022/07/07 09:10:56;;;;;;;0.85;0.30;;;;;;;20.54;100.00;99627.41;1659658;83;21136;-53
2022/07/07 09:13:28;;;;;;;1.05;0.30;;;;;;;20.55;100.00;99626.91;1747483;80;21719;-54
2022/07/07 09:15:58;;;;;;;0.30;0.30;;;;;;;20.55;100.00;99635.11;1743679;80;21076;-53
2022/07/07 09:18:32;;;;;;;0.30;0.30;;;;;;;20.55;100.00;99640.58;1742827;80;21138;-53
2022/07/07 09:20:59;;;;;;;;;;;;;;;20.60;100.00;99637.78;1754258;80;21027;-52
2022/07/07 09:23:26;;;;;;;0.23;0.20;;;;;;;20.68;100.00;99638.44;1748945;80;20224;-52
2022/07/07 09:25:52;;;;;;;1.17;0.20;;;;;;;20.80;100.00;99636.45;1672337;84;21520;-52
2022/07/07 09:28:19;;;;;;;0.33;0.20;;;;;;;20.92;100.00;99632.09;1746877;80;21066;-52
2022/07/07 09:30:47;;;;;;;0.20;0.20;;;;;;;21.03;100.00;99632.44;1744324;80;21154;-53
2022/07/07 09:33:22;;;;;;;3.75;0.30;;;;;;;21.09;100.00;99631.39;1747464;80;21066;-53
2022/07/07 09:38:38;;;;;;;0.40;0.37;;;;;;;21.20;100.00;99631.77;1745455;80;21046;-54
2022/07/07 09:41:17;;;;;;;0.40;0.30;;;;;;;21.26;100.00;99638.05;1745336;81;21378;-53
2022/07/07 09:43:53;;;;;;;0.68;0.30;;;;;;;21.27;100.00;99630.17;1746826;80;21273;-54
2022/07/07 09:46:24;;;;;;;0.70;0.30;;;;;;;21.30;100.00;99634.50;1746496;80;21580;-54
2022/07/07 09:48:53;;;;;;;0.17;0.17;;;;;;;21.35;100.00;99635.78;1748866;81;21083;-53
2022/07/07 09:51:28;;;;;;;0.65;0.20;;;;;;;21.42;100.00;99636.95;1747678;81;21109;-52
2022/07/07 09:54:03;;;;;;;0.23;0.20;;;;;;;21.52;100.00;99639.16;1747111;80;22082;-52
2022/07/07 09:56:39;;;;;;;2.27;0.20;;;;;;;21.59;100.00;99638.09;1749442;81;22036;-55
2022/07/07 09:59:10;;;;;;;0.37;0.20;;;;;;;21.59;100.00;99642.20;1751222;81;21070;-54
2022/07/07 10:01:40;;;;;;;0.88;0.20;;;;;;;21.62;100.00;99639.14;1748916;81;21414;-55
2022/07/07 10:04:22;;;;;;;0.20;0.20;;;;;;;21.64;100.00;99650.83;1748037;80;21069;-54
2022/07/07 10:06:44;;;;;;;0.20;0.20;;;;;;;21.70;100.00;99645.25;1748350;80;21042;-53
2022/07/07 10:09:13;;;;;;;0.42;0.20;;;;;;;21.70;100.00;99641.14;1746631;80;22726;-54
2022/07/07 10:11:42;;;;;;;0.30;0.20;;;;;;;21.67;100.00;99638.72;1743503;80;21102;-55
2022/07/07 10:14:16;;;;;;;2.40;0.20;;;;;;;21.68;100.00;99638.58;1745589;80;21484;-53
2022/07/07 10:16:47;;;;;;;0.10;0.10;;;;;;;21.73;100.00;99636.25;1747217;80;22093;-55
2022/07/07 10:19:18;;;;;;;0.10;0.10;;;;;;;21.75;100.00;99636.97;1748845;80;21382;-52
2022/07/07 10:21:46;;;;;;;0.30;0.20;;;;;;;21.74;100.00;99641.22;1743102;80;21109;-54
2022/07/07 10:24:17;;;;;;;0.20;0.13;;;;;;;21.73;100.00;99632.64;1700925;82;21067;-54
2022/07/07 10:26:57;;;;;;;1.10;0.20;;;;;;;21.75;100.00;99633.37;1746350;80;21576;-54
2022/07/07 10:29:51;;;;;;;0.23;0.13;;;;;;;21.79;100.00;99635.65;1741138;80;21145;-53
2022/07/07 10:32:21;;;;;;;0.30;0.20;;;;;;;21.81;100.00;99635.00;1739765;80;21498;-53
2022/07/07 10:34:56;;;;;;;0.10;0.10;;;;;;;21.87;100.00;99628.92;1668788;83;21800;-53
2022/07/07 10:37:24;;;;;;;0.10;0.10;;;;;;;21.92;100.00;99629.86;1742057;80;21393;-53
2022/07/07 10:39:56;;;;;;;0.20;0.20;;;;;;;21.93;100.00;99627.98;1745899;80;20969;-54
2022/07/07 10:42:36;;;;;;;1.20;0.20;;;;;;;21.93;100.00;99626.11;1745384;80;21445;-53
2022/07/07 10:45:04;;;;;;;0.20;0.20;;;;;;;21.97;100.00;99623.92;1668702;83;21003;-54
2022/07/07 10:47:32;;;;;;;0.20;0.10;;;;;;;21.99;100.00;99627.41;1749948;80;22070;-54
2022/07/07 10:50:00;;;;;;;0.47;0.17;;;;;;;21.97;100.00;99628.03;1738475;80;21074;-54
2022/07/07 10:52:31;;;;;;;0.37;0.10;;;;;;;21.95;100.00;99636.39;1744922;80;21141;-53
2022/07/07 10:55:00;;;;;;;1.47;0.20;;;;;;;21.98;100.00;99632.03;1743629;80;21091;-53
2022/07/07 10:57:41;;;;;;;0.10;0.10;;;;;;;22.07;100.00;99624.78;1750044;80;20922;-54
2022/07/07 11:00:12;;;;;;;0.93;0.30;;;;;;;22.08;100.00;99623.27;1747393;80;21118;-53
2022/07/07 11:02:54;;;;;;;0.20;0.17;;;;;;;22.12;100.00;99623.81;1698214;82;20982;-52
2022/07/07 11:05:27;;;;;;;0.20;0.20;;;;;;;22.20;100.00;99637.67;1739833;80;20991;-53
2022/07/07 11:08:03;;;;;;;1.10;0.15;;;;;;;22.27;100.00;99633.30;1745066;80;20949;-53
2022/07/07 11:10:51;;;;;;;0.68;0.10;;;;;;;22.30;100.00;99649.43;1742705;80;21547;-53
2022/07/07 11:13:32;;;;;;;0.80;0.10;;;;;;;22.31;100.00;99647.55;1747530;80;21077;-53
2022/07/07 11:16:18;;;;;;;0.50;0.20;;;;;;;22.29;100.00;99645.50;1701786;82;21031;-52
2022/07/07 11:18:50;;;;;;;0.10;0.10;;;;;;;22.32;100.00;99652.03;1747730;80;20868;-53
2022/07/07 11:21:18;;;;;;;1.37;0.10;;;;;;;22.39;100.00;99651.27;1656220;84;20995;-54
2022/07/07 11:23:56;;;;;;;0.42;0.20;;;;;;;22.41;100.00;99653.36;1749555;80;21466;-53
2022/07/07 11:26:25;;;;;;;0.20;0.20;;;;;;;22.45;100.00;99649.31;1697554;82;21592;-54
2022/07/07 11:28:54;;;;;;;0.30;0.10;;;;;;;22.48;100.00;99648.13;1746940;80;21133;-54
2022/07/07 11:31:21;;;;;;;0.10;0.10;;;;;;;22.57;100.00;99642.59;1749983;80;20884;-53
2022/07/07 11:33:55;;;;;;;0.20;0.13;;;;;;;22.68;100.00;99652.50;1743077;80;21045;-54
2022/07/07 11:36:27;;;;;;;1.40;0.20;;;;;;;22.76;100.00;99638.91;1745328;80;21066;-54